KAKO/AKO METAR and TAF weather

Enter ICAO airport designator
Station Type Date Time Source
KAKO METAR 2020/07/06 21:53 UTC NOAA

KAKO 062153Z AUTO 16013KT 10SM CLR 34/08 A3004 RMK AO2 SLP100 T03440083


Station Type Date Time Source
KAKO Decoded METAR 2020/07/06 21:53 UTC NOAA

COLORADO PLAINS REGIONAL, CO, United States (KAKO) 40-10N 103-13W 1421M
Jul 06, 2020 - 05:53 PM EDT / 2020.07.06 2153 UTC
Wind: from the SSE (160 degrees) at 15 MPH (13 KT):0
Visibility: 10 mile(s):0
Sky conditions: clear
Temperature: 93.9 F (34.4 C)
Dew Point: 46.9 F (8.3 C)
Relative Humidity: 20%
Pressure (altimeter): 30.04 in. Hg (1017 hPa)
ob: KAKO 062153Z AUTO 16013KT 10SM CLR 34/08 A3004 RMK AO2 SLP100 T03440083
cycle: 22

Station Type Date Time Source
KAKO TAF UTC NOAA

Error!

Example: see airport list